Ebeye, MH

11:29 PM MHT on August 23, 2014 (GMT +1200)
Wake Island Army Air Field | Change Station
CLOSE
Current Station
Airport
Location: Wake Island, Wake Island Army,
Elevation: 13 ft
Nearby Weather Stations

Elev 13 ft 19.28 °N, 166.64 °E | Updated 31 minutes ago

Scattered Clouds
Scattered Clouds
83 °F
Feels Like 89 °F
N
15
Wind Variable Wind from ENE

Today
High -- | Low -- °F
--% Chance of Precip.
Yesterday
High -- | Low -- °F
Precip. -- in
6:29 AM 6:47 PM
Waning Crescent, 4% visible
Pressure 29.99 in
Visibility 6.2 miles
Clouds Few 2600 ft
Scattered Clouds 3300 ft
Heat Index 89 °F
Dew Point 75 °F
Humidity 77%
Rainfall 0.04 in
Snow Depth Not available.
UV 0 out of 12
Pollen Not available.
Air Quality Not available.
Flu Activity Not available.
METAR PWAK 231058Z AUTO 07013KT 9999 FEW026 SCT033 28/24 A2997 RMK AO2 SLP155 T02810237

More Conditions Fewer Conditions

Pressure 29.99 in
Visibility 6.2 miles
Clouds Few 2600 ft
Scattered Clouds 3300 ft
Heat Index 89 °F
Dew Point 75 °F
Humidity 77%
Rainfall 0.04 in
Snow Depth Not available.
UV 0 out of 12
Pollen Not available.
Air Quality Not available.
Flu Activity Not available.
METAR PWAK 231058Z AUTO 07013KT 9999 FEW026 SCT033 28/24 A2997 RMK AO2 SLP155 T02810237

More Conditions Fewer Conditions

10-Day Weather Forecast

Almanac

Astronomy

Aug. 23, 2014 Rise Set
Actual Time 6:29 AM MHT 6:47 PM MHT
Civil Twilight 6:07 AM MHT 7:08 PM MHT
Nautical Twilight 5:43 AM MHT 7:33 PM MHT
Astronomical Twilight 5:18 AM MHT 7:58 PM MHT
Moon 4:19 AM MHT 4:57 PM MHT
Length of Visible Light 13h 00m
Length of Day
12h 18m
Tomorrow will be 0m 21s shorter.
Waning Crescent, 4% of the Moon is Illuminated
Today
Waning Crescent
Aug 25
New
Sep 2
First Quarter
Sep 8
Full
Sep 15
Last Quarter

Community

WunderPhotos

Upload Photos

1,746,418 photos uploaded!

WunderBlogs® & News

By Dr. Jeff Masters
Director of Meteorology, Weather Underground
By Kari Strenfel
Meteorologist, Weather Underground
By Christopher C. Burt
Weather Historian, Weather Underground
August 23, 2014
August 23, 2014
August 23, 2014

Nearby

Snow Depth

Station Depth Elevation
No new snow has been reported.

Earthquake Activity

City Distance Mag. Time & Date
No recent earthquake activity has been reported nearby.
Minimum magnitude displayed is 2.5.

Coastal Water Temperatures

Place Temperature
No Stations Reporting

Nearby Weather Stations